Time,TemperatureF,DewpointF,PressureIn,WindDirection,WindDirectionDegrees,WindSpeedMPH,WindSpeedGustMPH,Humidity,HourlyPrecipIn,Conditions,Clouds,dailyrainin,SoftwareType,DateUTC
2013-08-01 00:12:00,66.0,64.0,29.99,North,0,0.0,0.0,92,44.16,,,-99.99,,2013-08-01 07:12:00,
2013-08-01 00:22:00,66.0,64.0,29.99,North,0,0.0,0.0,92,44.16,,,-99.99,,2013-08-01 07:22:00,
2013-08-01 00:32:00,66.0,64.0,29.99,North,0,0.0,0.0,92,44.16,,,-99.99,,2013-08-01 07:32:00,
2013-08-01 00:43:00,66.0,64.0,29.98,North,0,0.0,0.0,93,44.16,,,-99.99,,2013-08-01 07:43:00,
2013-08-01 00:52:00,66.0,64.0,29.98,North,0,0.0,0.0,93,44.16,,,-99.99,,2013-08-01 07:52:00,
2013-08-01 01:03:00,66.0,64.0,29.98,North,0,0.0,0.0,93,44.16,,,-99.99,,2013-08-01 08:03:00,
2013-08-01 01:14:00,66.0,64.0,29.98,North,0,0.0,0.0,93,44.16,,,-99.99,,2013-08-01 08:14:00,
2013-08-01 01:22:00,66.0,64.0,29.98,North,0,0.0,0.0,93,44.16,,,-99.99,,2013-08-01 08:22:00,
2013-08-01 02:10:00,66.0,64.0,29.98,SSW,204,0.0,3.0,94,44.16,,,-99.99,,2013-08-01 09:10:00,
2013-08-01 02:17:00,66.0,64.0,29.98,SSW,204,0.0,3.0,94,44.16,,,-99.99,,2013-08-01 09:17:00,
2013-08-01 03:03:00,65.0,63.0,29.97,North,0,0.0,0.0,94,44.16,,,-99.99,,2013-08-01 10:03:00,
2013-08-01 03:47:00,65.0,64.0,29.96,North,0,0.0,0.0,95,44.16,,,-99.99,,2013-08-01 10:47:00,
2013-08-01 03:58:00,65.0,64.0,29.96,North,0,0.0,0.0,95,44.16,,,-99.99,,2013-08-01 10:58:00,
2013-08-01 04:04:00,65.0,64.0,29.96,North,0,0.0,0.0,95,44.16,,,-99.99,,2013-08-01 11:04:00,
2013-08-01 04:12:00,64.0,63.0,29.96,South,180,0.0,3.0,95,44.16,,,-99.99,,2013-08-01 11:12:00,
2013-08-01 04:35:00,64.0,63.0,29.96,South,180,0.0,3.0,95,44.16,,,-99.99,,2013-08-01 11:35:00,
2013-08-01 11:55:00,63.0,58.0,29.99,South,176,4.0,11.0,85,44.16,,,-99.99,,2013-08-01 18:55:00,
2013-08-01 12:03:00,63.0,58.0,29.99,South,176,4.0,11.0,85,44.16,,,-99.99,,2013-08-01 19:03:00,
2013-08-01 12:13:00,63.0,58.0,29.99,South,176,4.0,11.0,85,44.16,,,-99.99,,2013-08-01 19:13:00,
2013-08-01 14:24:00,63.0,58.0,30.00,North,359,1.0,10.0,84,44.16,,,-99.99,,2013-08-01 21:24:00,
2013-08-01 14:34:00,63.0,58.0,30.00,North,359,1.0,10.0,84,44.16,,,-99.99,,2013-08-01 21:34:00,
2013-08-01 14:43:00,63.0,58.0,30.00,North,359,1.0,10.0,84,44.16,,,-99.99,,2013-08-01 21:43:00,
2013-08-01 14:53:00,63.0,58.0,30.00,North,359,1.0,10.0,84,44.16,,,-99.99,,2013-08-01 21:53:00,
2013-08-01 17:00:00,64.0,58.0,30.00,SSE,159,4.0,10.0,82,44.16,,,-99.99,,2013-08-02 00:00:00,
2013-08-01 17:14:00,64.0,58.0,30.00,SSE,159,4.0,10.0,82,44.16,,,-99.99,,2013-08-02 00:14:00,
2013-08-01 17:33:00,63.0,58.0,30.00,SE,139,2.0,12.0,84,44.16,,,-99.99,,2013-08-02 00:33:00,
2013-08-01 17:51:00,63.0,58.0,30.00,SE,139,2.0,12.0,84,44.16,,,-99.99,,2013-08-02 00:51:00,
2013-08-01 18:02:00,63.0,58.0,29.99,North,0,0.0,0.0,83,44.16,,,-99.99,,2013-08-02 01:02:00,
2013-08-01 18:14:00,63.0,58.0,29.99,North,359,1.0,9.0,83,44.16,,,-99.99,,2013-08-02 01:14:00,
2013-08-01 18:32:00,63.0,57.0,29.98,SSW,205,1.0,12.0,82,44.16,,,-99.99,,2013-08-02 01:32:00,
2013-08-01 18:43:00,63.0,57.0,29.98,SSW,205,1.0,12.0,82,44.16,,,-99.99,,2013-08-02 01:43:00,
2013-08-01 18:52:00,63.0,57.0,29.99,South,179,1.0,8.0,82,44.16,,,-99.99,,2013-08-02 01:52:00,
2013-08-01 19:02:00,63.0,57.0,29.99,South,179,1.0,8.0,82,44.16,,,-99.99,,2013-08-02 02:02:00,
2013-08-01 19:14:00,63.0,57.0,29.99,South,179,1.0,8.0,82,44.16,,,-99.99,,2013-08-02 02:14:00,
2013-08-01 19:45:00,63.0,57.0,30.00,SSW,205,1.0,10.0,80,44.16,,,-99.99,,2013-08-02 02:45:00,
2013-08-01 19:52:00,63.0,57.0,30.00,North,359,1.0,12.0,80,44.16,,,-99.99,,2013-08-02 02:52:00,
2013-08-01 20:04:00,63.0,57.0,30.01,North,0,0.0,0.0,81,44.16,,,-99.99,,2013-08-02 03:04:00,
2013-08-01 20:12:00,63.0,57.0,30.01,North,0,0.0,0.0,82,44.16,,,-99.99,,2013-08-02 03:12:00,
2013-08-01 20:21:00,63.0,57.0,30.01,North,359,1.0,10.0,81,44.16,,,-99.99,,2013-08-02 03:21:00,
2013-08-01 20:32:00,63.0,57.0,30.01,North,359,0.0,6.0,82,44.16,,,-99.99,,2013-08-02 03:32:00,
2013-08-01 20:42:00,62.0,57.0,30.01,North,359,2.0,10.0,83,44.16,,,-99.99,,2013-08-02 03:42:00,
2013-08-01 20:52:00,62.0,56.0,30.01,North,359,1.0,10.0,82,44.16,,,-99.99,,2013-08-02 03:52:00,
2013-08-01 21:01:00,63.0,57.0,30.01,SSW,203,1.0,7.0,82,44.16,,,-99.99,,2013-08-02 04:01:00,
2013-08-01 21:11:00,62.0,56.0,30.01,North,0,0.0,0.0,82,44.16,,,-99.99,,2013-08-02 04:11:00,
2013-08-01 21:22:00,62.0,56.0,30.01,North,0,0.0,0.0,82,44.16,,,-99.99,,2013-08-02 04:22:00,
2013-08-01 21:43:00,62.0,57.0,30.01,North,359,0.0,6.0,84,44.16,,,-99.99,,2013-08-02 04:43:00,
2013-08-01 21:53:00,62.0,57.0,30.01,North,359,1.0,6.0,83,44.16,,,-99.99,,2013-08-02 04:53:00,
2013-08-01 22:02:00,62.0,57.0,30.01,North,359,1.0,9.0,83,44.16,,,-99.99,,2013-08-02 05:02:00,
2013-08-01 22:11:00,62.0,57.0,30.02,North,359,1.0,7.0,83,44.16,,,-99.99,,2013-08-02 05:11:00,
2013-08-01 22:22:00,62.0,57.0,30.02,North,359,1.0,7.0,83,44.16,,,-99.99,,2013-08-02 05:22:00,
2013-08-01 22:32:00,62.0,57.0,30.02,North,359,1.0,9.0,83,44.16,,,-99.99,,2013-08-02 05:32:00,
2013-08-01 22:43:00,62.0,57.0,30.02,SSW,195,1.0,10.0,83,44.16,,,-99.99,,2013-08-02 05:43:00,
2013-08-01 22:53:00,62.0,57.0,30.02,South,191,1.0,7.0,83,44.16,,,-99.99,,2013-08-02 05:53:00,
2013-08-01 23:02:00,62.0,57.0,30.02,North,359,1.0,8.0,84,44.16,,,-99.99,,2013-08-02 06:02:00,
2013-08-01 23:22:00,62.0,57.0,30.02,North,0,0.0,0.0,84,44.16,,,-99.99,,2013-08-02 06:22:00,
2013-08-01 23:33:00,62.0,57.0,30.02,South,179,1.0,10.0,84,44.16,,,-99.99,,2013-08-02 06:33:00,
2013-08-01 23:43:00,62.0,57.0,30.02,SW,218,1.0,10.0,84,44.16,,,-99.99,,2013-08-02 06:43:00,
2013-08-01 23:52:00,62.0,57.0,30.02,North,359,0.0,6.0,84,44.16,,,-99.99,,2013-08-02 06:52:00,